Time;durP1;ratioP1;P1;durP2;ratioP2;P2;SDS_P1;SDS_P2;PMS_P1;PMS_P2;Temp;Humidity;BMP_temperature;BMP_pressure;BME280_temperature;BME280_humidity;BME280_pressure;Samples;Min_cycle;Max_cycle;Signal;HPM_P1;HPM_P2
2023/10/01 00:14:16;;;;;;;6.00;3.67;;;16.00;99.90;;;;;;4547717;19;20003;31
2023/10/01 00:15:52;;;;;;;7.32;3.85;;;16.00;99.90;;;;;;4592979;19;20026;-70
2023/10/01 00:17:26;;;;;;;6.90;3.90;;;16.00;99.90;;;;;;4591981;19;20009;-71
2023/10/01 00:19:00;;;;;;;7.20;4.28;;;16.00;99.90;;;;;;4592070;19;20007;-69
2023/10/01 00:20:35;;;;;;;9.05;4.03;;;16.00;99.90;;;;;;4592204;19;20305;-71
2023/10/01 00:22:09;;;;;;;8.85;4.72;;;16.00;99.90;;;;;;4592033;19;20070;-71
2023/10/01 00:23:43;;;;;;;8.65;3.95;;;16.00;99.90;;;;;;4592345;19;20002;-71
2023/10/01 00:25:23;;;;;;;6.97;3.70;;;16.00;99.90;;;;;;4591004;19;20450;-70
2023/10/01 00:26:57;;;;;;;7.20;3.85;;;16.00;99.90;;;;;;4592247;19;19998;-71
2023/10/01 00:28:31;;;;;;;7.53;3.47;;;16.00;99.90;;;;;;4592001;19;20433;-71
2023/10/01 00:30:10;;;;;;;6.75;3.90;;;16.00;99.90;;;;;;4591953;19;19999;-68
2023/10/01 00:31:45;;;;;;;7.90;3.53;;;16.00;99.90;;;;;;4590967;19;20410;-71
2023/10/01 00:33:19;;;;;;;6.93;3.38;;;16.00;99.90;;;;;;4591634;19;20023;-68
2023/10/01 00:34:58;;;;;;;6.43;4.07;;;16.00;99.90;;;;;;4591267;19;20006;-71
2023/10/01 00:36:32;;;;;;;4.97;3.10;;;16.00;99.90;;;;;;4592926;19;20054;-71
2023/10/01 00:38:07;;;;;;;7.78;3.60;;;16.00;99.90;;;;;;4596270;19;19998;-71
2023/10/01 00:39:43;;;;;;;9.02;4.20;;;16.00;99.90;;;;;;4596902;19;20007;-71
2023/10/01 00:41:18;;;;;;;7.93;4.15;;;16.00;99.90;;;;;;4596784;19;19998;-70
2023/10/01 00:42:51;;;;;;;5.80;3.30;;;16.00;99.90;;;;;;4596474;19;20082;-71
2023/10/01 00:44:27;;;;;;;7.05;3.90;;;16.00;99.90;;;;;;4595846;19;20017;-71
2023/10/01 00:46:01;;;;;;;6.95;3.90;;;16.00;99.90;;;;;;4595011;19;20006;-70
2023/10/01 00:47:40;;;;;;;7.13;3.85;;;16.00;99.90;;;;;;4596320;19;20161;-70
2023/10/01 00:49:15;;;;;;;7.75;3.65;;;16.00;99.90;;;;;;4595169;19;20003;-71
2023/10/01 00:50:48;;;;;;;7.20;3.63;;;16.00;99.90;;;;;;4596059;19;20005;-69
2023/10/01 00:52:23;;;;;;;6.22;3.47;;;16.00;99.90;;;;;;4596493;19;20013;-71
2023/10/01 00:54:02;;;;;;;7.30;3.63;;;16.00;99.90;;;;;;4595076;19;20020;-71
2023/10/01 00:55:37;;;;;;;6.65;4.15;;;16.00;99.90;;;;;;4594277;19;20438;-71
2023/10/01 00:57:11;;;;;;;7.82;3.22;;;15.90;99.90;;;;;;4596450;19;20020;-71
2023/10/01 00:58:47;;;;;;;5.93;3.17;;;15.90;99.90;;;;;;4596250;19;20010;-71
2023/10/01 01:00:20;;;;;;;5.80;3.13;;;15.90;99.90;;;;;;4596169;19;20383;-70
2023/10/01 01:01:54;;;;;;;8.48;4.18;;;15.90;99.90;;;;;;4596073;19;20005;-68
2023/10/01 01:03:29;;;;;;;8.75;4.10;;;15.90;99.90;;;;;;4596085;19;20003;-68
2023/10/01 01:05:19;;;;;;;6.15;3.50;;;15.90;99.90;;;;;;4594724;19;20313;-70
2023/10/01 01:06:54;;;;;;;9.18;4.15;;;15.90;99.90;;;;;;4596316;19;20448;-71
2023/10/01 01:08:38;;;;;;;9.23;4.53;;;15.80;99.90;;;;;;4596014;19;20007;-68
2023/10/01 01:10:15;;;;;;;7.07;3.83;;;15.80;99.90;;;;;;4596064;19;20019;-71
2023/10/01 01:11:52;;;;;;;7.22;3.55;;;15.80;99.90;;;;;;4596023;19;20074;-71
2023/10/01 01:13:33;;;;;;;7.07;3.60;;;15.80;99.90;;;;;;4594642;19;20006;-71
2023/10/01 01:15:12;;;;;;;9.48;4.03;;;15.80;99.90;;;;;;4593441;19;20019;-70
2023/10/01 01:16:48;;;;;;;9.80;4.78;;;15.80;99.90;;;;;;4595680;19;19999;-71
2023/10/01 01:18:26;;;;;;;8.65;4.30;;;15.80;99.90;;;;;;4596048;19;20011;-68
2023/10/01 01:20:00;;;;;;;8.02;4.05;;;15.80;99.90;;;;;;4596087;19;20007;-71
2023/10/01 01:21:33;;;;;;;9.80;4.53;;;15.70;99.90;;;;;;4594387;19;20009;-71
2023/10/01 01:23:14;;;;;;;9.52;5.40;;;15.80;99.90;;;;;;4595743;19;20013;-71
2023/10/01 01:24:50;;;;;;;7.63;4.10;;;15.70;99.90;;;;;;4593069;19;20011;-71
2023/10/01 01:26:24;;;;;;;9.27;4.07;;;15.80;99.90;;;;;;4595648;19;20007;-70
2023/10/01 01:28:00;;;;;;;8.68;4.38;;;15.80;99.90;;;;;;4594504;19;20287;-71
2023/10/01 01:29:40;;;;;;;9.40;5.03;;;15.80;99.90;;;;;;4595226;19;19998;-70
2023/10/01 01:31:16;;;;;;;7.32;4.32;;;15.80;99.90;;;;;;4595506;19;20007;-71
2023/10/01 01:32:53;;;;;;;7.55;3.75;;;15.80;99.90;;;;;;4595484;19;20433;-68
2023/10/01 01:34:28;;;;;;;7.05;3.88;;;15.80;99.90;;;;;;4595374;19;20002;-71
2023/10/01 01:36:05;;;;;;;7.28;3.60;;;15.80;99.90;;;;;;4596177;19;20019;-68
2023/10/01 01:37:47;;;;;;;6.70;3.92;;;15.80;99.90;;;;;;4595380;19;20012;-71
2023/10/01 01:39:54;;;;;;;6.60;3.33;;;15.80;99.90;;;;;;4595689;19;20007;-70
2023/10/01 01:41:28;;;;;;;8.30;3.67;;;15.80;99.90;;;;;;4592844;19;20097;-70
2023/10/01 01:43:15;;;;;;;6.22;3.35;;;15.80;99.90;;;;;;4593012;19;20088;-70
2023/10/01 01:44:49;;;;;;;5.80;2.97;;;15.80;99.90;;;;;;4592060;19;20007;-69
2023/10/01 01:46:47;;;;;;;8.77;3.58;;;15.80;99.90;;;;;;4592888;19;20011;-68
2023/10/01 01:48:33;;;;;;;6.22;3.38;;;15.80;99.90;;;;;;4591614;19;20434;-71
2023/10/01 01:50:26;;;;;;;6.15;3.53;;;15.80;99.90;;;;;;4592766;19;20006;-71
2023/10/01 01:52:03;;;;;;;7.53;3.90;;;15.80;99.90;;;;;;4593053;19;20006;-71
2023/10/01 01:53:41;;;;;;;6.93;3.30;;;15.80;99.90;;;;;;4592795;19;20030;-70
2023/10/01 01:55:29;;;;;;;7.57;3.22;;;15.80;99.90;;;;;;4591909;19;20006;-70
2023/10/01 01:57:08;;;;;;;7.90;3.97;;;15.80;99.90;;;;;;4592990;19;20430;-70
2023/10/01 01:58:44;;;;;;;7.35;3.40;;;15.90;99.90;;;;;;4592686;19;20026;-71
2023/10/01 02:00:19;;;;;;;6.32;3.33;;;15.90;99.90;;;;;;4592927;19;20093;-71
2023/10/01 02:01:53;;;;;;;7.68;3.30;;;15.90;99.90;;;;;;4592859;19;20009;-71
2023/10/01 02:03:33;;;;;;;6.20;3.67;;;15.90;99.90;;;;;;4592598;19;20323;-71
2023/10/01 02:05:09;;;;;;;6.03;3.45;;;15.90;99.90;;;;;;4591113;19;20007;-70
2023/10/01 02:06:45;;;;;;;6.03;3.20;;;15.90;99.90;;;;;;4592780;19;19999;-68
2023/10/01 02:08:24;;;;;;;7.18;3.20;;;15.90;99.90;;;;;;4592570;19;20010;-68
2023/10/01 02:09:58;;;;;;;5.97;3.38;;;15.90;99.90;;;;;;4592829;19;20007;-71
2023/10/01 02:11:32;;;;;;;8.00;3.20;;;15.90;99.90;;;;;;4592682;19;19995;-71
2023/10/01 02:13:07;;;;;;;6.20;3.75;;;15.90;99.90;;;;;;4592453;19;20022;-70
2023/10/01 02:14:42;;;;;;;6.18;3.60;;;15.90;99.90;;;;;;4591525;19;20019;-70
2023/10/01 02:16:32;;;;;;;7.10;3.33;;;15.90;99.90;;;;;;4592703;19;20006;-68
2023/10/01 02:18:08;;;;;;;6.67;3.77;;;15.90;99.90;;;;;;4594426;19;20014;-70
2023/10/01 02:19:46;;;;;;;7.28;3.33;;;15.90;99.90;;;;;;4594517;19;20025;-71
2023/10/01 02:21:41;;;;;;;7.35;3.75;;;15.90;99.90;;;;;;4594532;19;20016;-71
2023/10/01 02:23:17;;;;;;;9.07;3.90;;;15.90;99.90;;;;;;4594811;19;20014;-71
2023/10/01 02:25:00;;;;;;;6.28;3.47;;;15.90;99.90;;;;;;4591816;19;20058;-71
2023/10/01 02:26:34;;;;;;;6.25;3.00;;;15.90;99.90;;;;;;4594571;19;20305;-71
2023/10/01 02:28:15;;;;;;;5.78;3.13;;;15.90;99.90;;;;;;4594756;19;20105;-70
2023/10/01 02:31:48;;;;;;;4.97;2.80;;;15.90;99.90;;;;;;4594447;19;20009;-71
2023/10/01 02:33:24;;;;;;;5.55;3.42;;;15.90;99.90;;;;;;4594401;19;19998;-71
2023/10/01 02:34:58;;;;;;;6.20;3.40;;;15.90;99.90;;;;;;4592189;19;20006;-70
2023/10/01 02:36:32;;;;;;;6.40;3.40;;;15.90;99.90;;;;;;4594172;19;20005;-71
2023/10/01 02:38:08;;;;;;;6.97;3.25;;;15.90;99.90;;;;;;4594234;19;20469;-70
2023/10/01 02:39:43;;;;;;;5.57;3.45;;;15.90;99.90;;;;;;4594127;19;20318;-68
2023/10/01 02:41:17;;;;;;;6.60;3.50;;;15.80;99.90;;;;;;4594015;19;20070;-70
2023/10/01 02:42:56;;;;;;;6.28;3.60;;;15.80;99.90;;;;;;4593259;19;20027;-70
2023/10/01 02:44:31;;;;;;;5.65;2.83;;;15.80;99.90;;;;;;4593136;19;20453;-70
2023/10/01 02:46:14;;;;;;;5.85;3.30;;;15.80;99.90;;;;;;4593007;19;20442;-70
2023/10/01 02:48:12;;;;;;;6.15;3.10;;;15.90;99.90;;;;;;4592711;19;20010;-70
2023/10/01 02:49:51;;;;;;;5.97;3.28;;;15.90;99.90;;;;;;4593836;19;20011;-70
2023/10/01 02:51:32;;;;;;;6.70;3.20;;;15.80;99.90;;;;;;4593969;19;20006;-70
2023/10/01 02:53:08;;;;;;;6.03;2.90;;;15.80;99.90;;;;;;4594203;19;20287;-70
2023/10/01 02:54:44;;;;;;;5.35;2.95;;;15.80;99.90;;;;;;4593281;19;19999;-70
2023/10/01 02:56:18;;;;;;;5.93;3.30;;;15.80;99.90;;;;;;4593775;19;20365;-70
2023/10/01 02:57:53;;;;;;;5.43;2.90;;;15.80;99.90;;;;;;4594010;19;20036;-70
2023/10/01 02:59:27;;;;;;;6.45;2.90;;;15.80;99.90;;;;;;4592406;19;20314;-70
2023/10/01 03:01:04;;;;;;;5.85;3.05;;;15.80;99.90;;;;;;4592979;19;20002;-70
2023/10/01 03:02:44;;;;;;;6.78;3.10;;;15.80;99.90;;;;;;4592505;19;20003;-70
2023/10/01 03:04:19;;;;;;;6.10;2.97;;;15.80;99.90;;;;;;4591886;19;20007;-70
2023/10/01 03:05:53;;;;;;;9.02;3.35;;;15.70;99.90;;;;;;4593566;19;20022;-70
2023/10/01 03:07:38;;;;;;;6.10;2.88;;;15.80;99.90;;;;;;4593649;19;20010;-70
2023/10/01 03:09:28;;;;;;;5.85;3.05;;;15.80;99.90;;;;;;4593569;19;20066;-70
2023/10/01 03:11:03;;;;;;;5.38;3.05;;;15.80;99.90;;;;;;4592230;19;20436;-70
2023/10/01 03:12:40;;;;;;;6.75;3.35;;;15.80;99.90;;;;;;4593154;19;20007;-70
2023/10/01 03:14:26;;;;;;;6.80;3.10;;;15.70;99.90;;;;;;4593311;19;20331;-70
2023/10/01 03:17:57;;;;;;;5.65;2.80;;;15.70;99.90;;;;;;4592083;19;20093;-70
2023/10/01 03:19:34;;;;;;;6.32;3.05;;;15.70;99.90;;;;;;4592243;19;20006;-70
2023/10/01 03:21:33;;;;;;;5.85;2.92;;;15.70;99.90;;;;;;4593357;19;20007;-70
2023/10/01 03:23:30;;;;;;;4.95;2.65;;;15.70;99.90;;;;;;4593125;19;20032;-70
2023/10/01 03:25:27;;;;;;;5.70;2.83;;;15.70;99.90;;;;;;4592250;19;20038;-70
2023/10/01 03:27:19;;;;;;;5.43;2.92;;;15.70;99.90;;;;;;4593124;19;20006;-70
2023/10/01 03:30:46;;;;;;;6.15;3.15;;;15.70;99.90;;;;;;4593463;19;20007;-70
2023/10/01 03:32:29;;;;;;;5.53;2.90;;;15.70;99.90;;;;;;4592962;19;20070;-70
2023/10/01 03:34:10;;;;;;;5.82;3.33;;;15.70;99.90;;;;;;4593018;19;20007;-70
2023/10/01 03:35:49;;;;;;;5.18;3.35;;;15.70;99.90;;;;;;4593364;19;20003;-70
2023/10/01 03:37:27;;;;;;;6.25;2.85;;;15.70;99.90;;;;;;4593049;19;20025;-70
2023/10/01 03:41:00;;;;;;;7.40;3.10;;;15.70;99.90;;;;;;4593013;19;20014;-70
2023/10/01 03:42:37;;;;;;;5.57;2.65;;;15.70;99.90;;;;;;4591869;19;20046;-70
2023/10/01 03:44:12;;;;;;;6.25;3.15;;;15.70;99.90;;;;;;4592407;19;20002;-70
2023/10/01 03:45:54;;;;;;;7.80;4.00;;;15.70;99.90;;;;;;4592708;19;20018;-70
2023/10/01 03:47:34;;;;;;;6.72;3.92;;;15.70;99.90;;;;;;4593090;19;20006;-70
2023/10/01 03:51:03;;;;;;;6.65;2.78;;;15.70;99.90;;;;;;4592753;19;20023;-70
2023/10/01 03:52:41;;;;;;;6.05;3.40;;;15.70;99.90;;;;;;4591603;19;20009;-70
2023/10/01 03:54:20;;;;;;;5.57;3.00;;;15.70;99.90;;;;;;4592182;19;20006;-70
2023/10/01 03:55:55;;;;;;;6.75;3.53;;;15.70;99.90;;;;;;4592959;19;20012;-70
2023/10/01 03:57:31;;;;;;;5.35;2.97;;;15.70;99.90;;;;;;4592586;19;20321;-70
2023/10/01 03:59:15;;;;;;;4.18;2.63;;;15.70;99.90;;;;;;4592591;19;20021;-70
2023/10/01 04:00:55;;;;;;;5.00;2.75;;;15.70;99.90;;;;;;4592876;19;20356;-70
2023/10/01 04:02:51;;;;;;;6.50;3.13;;;15.70;99.90;;;;;;4592829;19;20023;-70
2023/10/01 04:04:56;;;;;;;6.45;3.15;;;15.70;99.90;;;;;;4592013;19;20006;-70
2023/10/01 04:06:23;;;;;;;6.00;3.33;;;15.70;99.90;;;;;;4591244;19;20011;-70
2023/10/01 04:08:04;;;;;;;5.03;2.78;;;15.70;99.90;;;;;;4592608;19;19998;-70
2023/10/01 04:09:50;;;;;;;7.00;3.90;;;15.70;99.90;;;;;;4592381;19;20290;-70
2023/10/01 04:11:49;;;;;;;5.38;3.28;;;15.60;99.90;;;;;;4591937;19;20037;-70
2023/10/01 04:13:24;;;;;;;5.82;2.92;;;15.70;99.90;;;;;;4592656;19;20007;-70
2023/10/01 04:15:03;;;;;;;6.25;3.25;;;15.60;99.90;;;;;;4591476;19;20015;-70
2023/10/01 04:16:46;;;;;;;5.78;3.53;;;15.60;99.90;;;;;;4592288;19;20017;-70
2023/10/01 04:18:23;;;;;;;5.78;3.22;;;15.60;99.90;;;;;;4590989;19;20021;-70
2023/10/01 04:20:19;;;;;;;6.15;3.08;;;15.60;99.90;;;;;;4592296;19;20011;-70
2023/10/01 04:21:53;;;;;;;6.75;3.45;;;15.60;99.90;;;;;;4592509;19;20524;-70
2023/10/01 04:23:31;;;;;;;7.68;3.85;;;15.60;99.90;;;;;;4592107;19;20009;-70
2023/10/01 04:25:11;;;;;;;5.32;2.78;;;15.60;99.90;;;;;;4589821;19;20010;-70
2023/10/01 04:26:46;;;;;;;5.97;3.20;;;15.60;99.90;;;;;;4591878;19;20007;-70
2023/10/01 04:28:20;;;;;;;6.32;3.70;;;15.60;99.90;;;;;;4592358;19;20321;-70
2023/10/01 04:29:58;;;;;;;6.35;3.63;;;15.60;99.90;;;;;;4591946;19;20074;-70
2023/10/01 04:31:48;;;;;;;7.38;3.53;;;15.60;99.90;;;;;;4592047;19;20006;-70
2023/10/01 04:33:26;;;;;;;8.27;3.67;;;15.60;99.90;;;;;;4591962;19;20043;-70
2023/10/01 04:35:11;;;;;;;6.38;3.33;;;15.60;99.90;;;;;;4591247;19;20010;-70
2023/10/01 04:36:50;;;;;;;6.38;3.35;;;15.60;99.90;;;;;;4590876;19;20007;-70
2023/10/01 04:38:26;;;;;;;7.15;3.45;;;15.60;99.90;;;;;;4590594;19;20321;-70
2023/10/01 04:40:06;;;;;;;6.70;3.60;;;15.60;99.90;;;;;;4591891;19;20006;-70
2023/10/01 04:41:41;;;;;;;4.70;2.83;;;15.60;99.90;;;;;;4591847;19;20029;-70
2023/10/01 04:43:21;;;;;;;6.18;3.47;;;15.60;99.90;;;;;;4592090;19;20329;-71
2023/10/01 04:44:59;;;;;;;5.70;3.35;;;15.60;99.90;;;;;;4589622;19;20010;-70
2023/10/01 04:46:40;;;;;;;5.97;3.30;;;15.60;99.90;;;;;;4591792;19;20011;-70
2023/10/01 04:48:16;;;;;;;6.60;3.72;;;15.60;99.90;;;;;;4590714;19;20010;-70
2023/10/01 04:49:52;;;;;;;7.20;3.70;;;15.60;99.90;;;;;;4590640;19;20010;-70
2023/10/01 04:51:44;;;;;;;9.20;3.75;;;15.60;99.90;;;;;;4591387;19;20426;-70
2023/10/01 04:53:21;;;;;;;4.55;3.17;;;15.60;99.90;;;;;;4591672;19;20029;-69
2023/10/01 04:54:58;;;;;;;5.70;3.13;;;15.60;99.90;;;;;;4589567;19;20011;-69
2023/10/01 04:56:34;;;;;;;6.00;3.50;;;15.60;99.90;;;;;;4591430;19;20447;-69
2023/10/01 04:58:12;;;;;;;6.15;3.50;;;15.60;99.90;;;;;;4591472;19;20322;-70
2023/10/01 04:59:59;;;;;;;7.88;4.70;;;15.60;99.90;;;;;;4590244;19;20082;-71
2023/10/01 05:01:33;;;;;;;6.70;3.45;;;15.60;99.90;;;;;;4591324;19;20018;-69
2023/10/01 05:03:08;;;;;;;5.25;3.25;;;15.60;99.90;;;;;;4591431;19;20375;-69
2023/10/01 05:04:43;;;;;;;5.75;3.05;;;15.60;99.90;;;;;;4591080;19;20011;-69
2023/10/01 05:06:20;;;;;;;6.43;3.28;;;15.60;99.90;;;;;;4591642;19;20421;-69
2023/10/01 05:07:57;;;;;;;8.20;4.28;;;15.60;99.90;;;;;;4590074;19;20014;-69
2023/10/01 05:09:33;;;;;;;5.65;3.55;;;15.70;99.90;;;;;;4590110;19;20120;-69
2023/10/01 05:11:14;;;;;;;8.65;3.72;;;16.10;99.90;;;;;;4591225;19;20024;-69
2023/10/01 05:12:55;;;;;;;8.95;3.92;;;16.50;99.90;;;;;;4590027;19;20013;-69
2023/10/01 05:14:30;;;;;;;8.32;3.33;;;16.80;99.90;;;;;;4589275;19;20308;-69
2023/10/01 05:16:06;;;;;;;7.13;3.00;;;17.10;99.90;;;;;;4591235;19;20421;-69
2023/10/01 05:17:42;;;;;;;7.95;3.67;;;17.30;99.90;;;;;;4591520;19;20018;-70
2023/10/01 05:19:23;;;;;;;8.32;3.58;;;17.60;99.90;;;;;;4591267;19;20372;-69
2023/10/01 05:21:01;;;;;;;12.73;3.17;;;17.70;99.90;;;;;;4591456;19;20007;-69
2023/10/01 05:22:46;;;;;;;7.63;3.50;;;17.90;99.90;;;;;;4591172;19;20006;-69
2023/10/01 05:24:36;;;;;;;6.43;3.17;;;18.10;99.90;;;;;;4595605;19;20007;-70
2023/10/01 05:26:11;;;;;;;7.85;3.05;;;18.20;99.90;;;;;;4594626;19;20306;-69
2023/10/01 05:27:46;;;;;;;9.85;3.45;;;18.30;99.90;;;;;;4595806;19;20002;-70
2023/10/01 05:29:25;;;;;;;9.02;3.97;;;18.50;99.90;;;;;;4595622;19;20006;-69
2023/10/01 05:31:06;;;;;;;10.48;4.43;;;18.50;99.90;;;;;;4595833;19;20017;-70
2023/10/01 05:32:51;;;;;;;9.00;3.88;;;18.60;99.90;;;;;;4594306;19;20002;-69
2023/10/01 05:34:28;;;;;;;10.30;4.10;;;18.70;99.90;;;;;;4595019;19;20313;-70
2023/10/01 05:36:06;;;;;;;8.13;4.13;;;18.70;99.90;;;;;;4594427;19;20070;-70
2023/10/01 05:37:42;;;;;;;7.40;3.35;;;18.80;99.90;;;;;;4594198;19;19999;-70
2023/10/01 05:39:17;;;;;;;8.60;3.42;;;18.90;99.90;;;;;;4595474;19;20320;-71
2023/10/01 05:40:54;;;;;;;8.32;3.80;;;18.90;99.90;;;;;;4593940;19;20005;-71
2023/10/01 05:42:31;;;;;;;9.15;3.38;;;19.00;99.90;;;;;;4594340;19;20437;-71
2023/10/01 05:44:10;;;;;;;7.68;3.92;;;19.00;99.90;;;;;;4595093;19;20036;-71
2023/10/01 05:45:50;;;;;;;7.65;3.33;;;19.10;99.90;;;;;;4593839;19;20017;-71
2023/10/01 05:47:41;;;;;;;7.90;3.28;;;19.10;99.90;;;;;;4593995;19;20430;-71
2023/10/01 05:49:18;;;;;;;9.15;3.25;;;19.20;99.90;;;;;;4595295;19;20023;-71
2023/10/01 05:50:53;;;;;;;9.90;3.33;;;19.20;99.90;;;;;;4595191;19;20007;-70
2023/10/01 05:52:27;;;;;;;7.53;3.35;;;19.30;99.90;;;;;;4594068;19;19999;-71
2023/10/01 05:54:04;;;;;;;9.77;3.45;;;19.30;99.90;;;;;;4594847;19;20474;-71
2023/10/01 05:55:38;;;;;;;8.43;3.42;;;19.30;99.90;;;;;;4592400;19;20007;-71
2023/10/01 05:57:14;;;;;;;8.40;3.67;;;19.40;99.90;;;;;;4594690;19;19998;-71
2023/10/01 05:58:50;;;;;;;9.13;3.65;;;19.40;99.90;;;;;;4595293;19;20015;-71
2023/10/01 06:00:27;;;;;;;8.88;3.45;;;19.40;99.90;;;;;;4594983;19;20025;-71
2023/10/01 06:02:01;;;;;;;9.20;3.65;;;19.40;99.90;;;;;;4595041;19;19998;-71
2023/10/01 06:03:40;;;;;;;7.45;3.38;;;19.50;99.90;;;;;;4594901;19;19999;-71
2023/10/01 06:05:42;;;;;;;8.85;3.60;;;19.50;99.90;;;;;;4593595;19;20322;-71
2023/10/01 06:07:17;;;;;;;7.60;3.05;;;19.50;99.90;;;;;;4594862;19;20045;-70
2023/10/01 06:08:59;;;;;;;7.10;2.80;;;19.60;99.90;;;;;;4594844;19;20066;-72
2023/10/01 06:10:35;;;;;;;7.78;3.00;;;19.60;99.90;;;;;;4593793;19;20015;-71
2023/10/01 06:12:10;;;;;;;8.38;3.20;;;19.60;99.90;;;;;;4594521;19;20066;-72
2023/10/01 06:13:51;;;;;;;6.43;3.38;;;19.70;99.90;;;;;;4594771;19;20007;-71
2023/10/01 06:15:29;;;;;;;6.80;3.70;;;19.80;99.90;;;;;;4591870;19;20019;-72
2023/10/01 06:17:05;;;;;;;8.40;3.28;;;19.80;99.90;;;;;;4593623;19;20022;-72
2023/10/01 06:18:41;;;;;;;6.88;2.95;;;19.90;99.90;;;;;;4594581;19;20007;-72
2023/10/01 06:20:24;;;;;;;8.07;3.55;;;20.00;99.90;;;;;;4594590;19;20444;-72
2023/10/01 06:22:22;;;;;;;7.97;3.13;;;20.10;99.90;;;;;;4594618;19;20002;-72
2023/10/01 06:23:58;;;;;;;7.53;3.55;;;20.20;99.90;;;;;;4593199;19;20483;-72
2023/10/01 06:25:40;;;;;;;7.57;3.58;;;20.30;99.90;;;;;;4592921;19;20090;-71
2023/10/01 06:27:18;;;;;;;9.18;3.50;;;20.30;99.90;;;;;;4594513;19;20078;-70
2023/10/01 06:28:54;;;;;;;5.90;2.67;;;20.30;99.90;;;;;;4593388;19;20010;-70
2023/10/01 06:30:28;;;;;;;9.63;3.33;;;20.40;99.90;;;;;;4594365;19;20002;-70
2023/10/01 06:32:02;;;;;;;8.25;2.80;;;20.40;99.90;;;;;;4594213;19;20025;-70
2023/10/01 06:33:38;;;;;;;8.85;3.28;;;20.40;99.90;;;;;;4594267;19;20094;-71
2023/10/01 06:35:14;;;;;;;7.55;3.33;;;20.40;99.90;;;;;;4592933;19;20370;-71
2023/10/01 06:36:51;;;;;;;10.65;3.45;;;20.40;99.90;;;;;;4594231;19;20062;-71
2023/10/01 06:38:26;;;;;;;7.03;3.40;;;20.50;99.90;;;;;;4594294;19;20006;-70
2023/10/01 06:40:00;;;;;;;6.93;3.15;;;20.40;99.90;;;;;;4594089;19;20002;-69
2023/10/01 06:41:35;;;;;;;8.35;3.95;;;20.40;99.90;;;;;;4594429;19;20002;-70
2023/10/01 06:43:10;;;;;;;7.03;2.55;;;20.50;99.90;;;;;;4594456;19;20007;-70
2023/10/01 06:44:43;;;;;;;7.03;3.50;;;20.50;99.90;;;;;;4593649;19;20086;-70
2023/10/01 06:46:19;;;;;;;8.65;3.50;;;20.50;99.90;;;;;;4594271;19;20021;-70
2023/10/01 06:48:05;;;;;;;6.35;3.28;;;20.60;99.90;;;;;;4592720;19;20030;-70
2023/10/01 06:49:57;;;;;;;7.18;3.30;;;20.60;99.90;;;;;;4593971;19;19995;-70
2023/10/01 06:51:43;;;;;;;8.95;4.30;;;20.70;99.90;;;;;;4592990;19;20066;-70
2023/10/01 06:53:43;;;;;;;9.10;3.30;;;20.80;99.90;;;;;;4592632;19;20039;-70
2023/10/01 06:55:28;;;;;;;7.75;3.53;;;20.90;99.90;;;;;;4592023;19;20010;-70
2023/10/01 06:57:16;;;;;;;6.65;2.63;;;21.00;99.90;;;;;;4593897;19;20006;-70
2023/10/01 07:00:41;;;;;;;6.35;3.70;;;21.10;99.90;;;;;;4592421;19;20014;-70
2023/10/01 07:02:16;;;;;;;6.68;2.92;;;21.20;99.90;;;;;;4593896;19;20003;-70
2023/10/01 07:03:51;;;;;;;8.98;3.40;;;21.20;99.90;;;;;;4593730;19;20006;-70
2023/10/01 07:05:28;;;;;;;9.73;3.33;;;21.20;99.90;;;;;;4592374;19;20097;-70
2023/10/01 07:07:20;;;;;;;5.55;2.97;;;21.30;99.90;;;;;;4593933;19;20006;-70
2023/10/01 07:08:55;;;;;;;4.90;3.03;;;19.40;99.90;;;;;;4593661;19;20007;-74
2023/10/01 07:10:30;;;;;;;8.00;4.38;;;18.10;99.90;;;;;;4593740;19;19999;-72
2023/10/01 07:12:06;;;;;;;8.95;3.85;;;17.50;99.90;;;;;;4592296;19;20094;-70
2023/10/01 07:13:43;;;;;;;6.13;3.28;;;17.30;99.90;;;;;;4592184;19;20357;-71
2023/10/01 07:15:18;;;;;;;7.50;3.63;;;17.20;99.90;;;;;;4591903;19;20015;-70
2023/10/01 07:16:52;;;;;;;8.93;3.88;;;17.10;99.90;;;;;;4592317;19;20010;-70
2023/10/01 07:18:29;;;;;;;7.10;4.10;;;17.00;99.90;;;;;;4593468;19;20006;-71
2023/10/01 07:20:18;;;;;;;6.63;3.45;;;17.00;99.90;;;;;;4593588;19;20030;-70
2023/10/01 07:21:56;;;;;;;5.57;3.40;;;17.00;99.90;;;;;;4593658;19;20367;-70
2023/10/01 07:23:33;;;;;;;5.82;3.40;;;17.00;99.90;;;;;;4593348;19;20074;-70
2023/10/01 07:25:28;;;;;;;6.35;4.35;;;17.00;99.90;;;;;;4592606;19;20017;-70
2023/10/01 07:27:06;;;;;;;6.90;3.25;;;16.90;99.90;;;;;;4593155;19;20022;-69
2023/10/01 07:28:52;;;;;;;8.63;3.50;;;16.90;99.90;;;;;;4593145;19;20043;-69
2023/10/01 07:30:45;;;;;;;7.65;3.78;;;16.90;99.90;;;;;;4593415;19;20007;-70
2023/10/01 07:32:20;;;;;;;6.28;3.33;;;16.90;99.90;;;;;;4593191;19;20425;-70
2023/10/01 07:34:01;;;;;;;7.80;3.25;;;16.90;99.90;;;;;;4591832;19;20090;-70
2023/10/01 07:35:40;;;;;;;6.80;3.53;;;16.90;99.90;;;;;;4590975;19;20290;-70
2023/10/01 07:37:23;;;;;;;6.82;3.55;;;16.90;99.90;;;;;;4592880;19;20007;-78
2023/10/01 07:38:59;;;;;;;6.35;3.70;;;16.90;99.90;;;;;;4593046;19;20078;-70
2023/10/01 07:40:50;;;;;;;5.78;3.60;;;16.90;99.90;;;;;;4593191;19;20455;-70
2023/10/01 07:42:25;;;;;;;4.82;2.85;;;17.00;99.90;;;;;;4593098;19;19998;-72
2023/10/01 07:44:07;;;;;;;8.50;4.55;;;17.40;99.90;;;;;;4591864;19;20013;-71
2023/10/01 07:45:55;;;;;;;8.60;3.63;;;17.90;99.90;;;;;;4590229;19;20010;-72
2023/10/01 07:47:32;;;;;;;9.50;3.72;;;18.30;99.90;;;;;;4592888;19;20006;-71
2023/10/01 07:49:09;;;;;;;8.27;4.22;;;18.70;99.90;;;;;;4592812;19;20032;-71
2023/10/01 07:50:42;;;;;;;10.25;4.45;;;19.00;99.90;;;;;;4592852;19;20003;-71
2023/10/01 07:52:19;;;;;;;12.20;4.32;;;19.20;99.90;;;;;;4592716;19;19998;-71
2023/10/01 07:53:57;;;;;;;8.27;3.78;;;19.30;99.90;;;;;;4593001;19;20501;-71
2023/10/01 07:55:35;;;;;;;9.10;3.50;;;19.50;99.90;;;;;;4591735;19;20018;-72
2023/10/01 07:57:09;;;;;;;8.88;3.67;;;19.60;99.90;;;;;;4591636;19;20009;-72
2023/10/01 07:58:57;;;;;;;7.20;3.42;;;19.70;99.90;;;;;;4592670;19;20516;-72
2023/10/01 08:00:34;;;;;;;8.15;3.10;;;19.80;99.90;;;;;;4592909;19;20339;-72
2023/10/01 08:02:13;;;;;;;8.40;2.95;;;19.90;99.90;;;;;;4592555;19;20011;-71
2023/10/01 08:03:55;;;;;;;6.07;2.70;;;19.90;99.90;;;;;;4592575;19;20007;-71
2023/10/01 08:05:33;;;;;;;7.38;2.65;;;19.90;99.90;;;;;;4591459;19;20009;-72
2023/10/01 08:07:15;;;;;;;7.70;2.80;;;20.00;99.90;;;;;;4592520;19;20324;-72
2023/10/01 08:08:57;;;;;;;5.95;2.60;;;20.10;99.90;;;;;;4591119;19;20006;-72
2023/10/01 08:10:37;;;;;;;6.13;2.72;;;20.10;99.90;;;;;;4591480;19;20335;-72
2023/10/01 08:12:12;;;;;;;8.77;3.22;;;20.10;99.90;;;;;;4592173;19;20002;-71
2023/10/01 08:13:47;;;;;;;6.00;2.30;;;20.10;99.90;;;;;;4592394;19;20029;-70
2023/10/01 08:15:32;;;;;;;9.55;3.75;;;20.20;99.90;;;;;;4591141;19;20454;-72
2023/10/01 08:17:05;;;;;;;11.20;2.83;;;20.20;99.90;;;;;;4592585;19;20421;-70
2023/10/01 08:18:42;;;;;;;7.90;3.05;;;20.20;99.90;;;;;;4592251;19;20027;-70
2023/10/01 08:20:21;;;;;;;6.53;2.53;;;20.30;99.90;;;;;;4592249;19;20322;-70
2023/10/01 08:21:55;;;;;;;7.75;2.53;;;20.30;99.90;;;;;;4592485;19;20319;-70
2023/10/01 08:23:45;;;;;;;7.65;3.63;;;20.30;99.90;;;;;;4592484;19;20423;-71
2023/10/01 08:25:19;;;;;;;7.68;3.33;;;20.30;99.90;;;;;;4591410;19;20010;-71
2023/10/01 08:27:01;;;;;;;7.00;3.08;;;20.30;99.90;;;;;;4592069;19;20005;-72
2023/10/01 08:28:43;;;;;;;5.43;2.30;;;20.50;99.90;;;;;;4592171;19;20516;-71
2023/10/01 08:30:19;;;;;;;5.75;2.65;;;20.60;99.90;;;;;;4592057;19;20006;-72
2023/10/01 08:33:33;;;;;;;24.48;11.60;;;20.60;99.90;;;;;;4592235;19;20006;-71
2023/10/01 08:35:22;;;;;;;24.60;11.35;;;20.60;99.90;;;;;;4591138;19;20433;-71
2023/10/01 08:36:58;;;;;;;11.20;4.97;;;20.60;99.90;;;;;;4591958;19;20007;-71
2023/10/01 08:39:19;;;;;;;4.85;2.88;;;20.70;99.90;;;;;;4590608;19;20007;-71
2023/10/01 08:40:42;;;;;;;4.45;2.75;;;19.40;99.90;;;;;;4590632;19;20028;-71
2023/10/01 08:42:17;;;;;;;6.03;3.38;;;18.30;99.90;;;;;;4591229;19;20011;-71
2023/10/01 08:44:08;;;;;;;5.55;3.20;;;18.00;99.90;;;;;;4591484;19;20006;-71
2023/10/01 08:45:43;;;;;;;5.43;2.63;;;17.80;99.90;;;;;;4590688;19;20014;-71
2023/10/01 08:47:31;;;;;;;4.70;2.40;;;17.70;99.90;;;;;;4591717;19;19998;-70
2023/10/01 08:49:23;;;;;;;3.38;2.03;;;17.70;99.90;;;;;;4592036;19;20461;-70
2023/10/01 08:50:57;;;;;;;5.10;2.55;;;17.70;99.90;;;;;;4592002;19;20013;-71
2023/10/01 08:52:31;;;;;;;5.05;2.10;;;17.70;99.90;;;;;;4590576;19;19998;-71
2023/10/01 08:54:14;;;;;;;5.78;1.90;;;17.70;99.90;;;;;;4590425;19;20359;-70
2023/10/01 08:57:36;;;;;;;5.07;2.00;;;17.60;99.90;;;;;;4591592;19;19925;-71
2023/10/01 08:59:24;;;;;;;4.80;2.55;;;17.60;99.90;;;;;;4594426;19;20006;-71
2023/10/01 09:01:14;;;;;;;4.57;1.98;;;17.60;99.90;;;;;;4596266;19;20007;-70
2023/10/01 09:02:50;;;;;;;3.83;1.77;;;17.60;99.90;;;;;;4596216;19;20433;-71
2023/10/01 09:04:58;;;;;;;5.25;2.42;;;17.60;99.90;;;;;;4594361;19;20453;-71